sensor_id;sensor_type;location;lat;lon;timestamp;pressure;altitude;pressure_sealevel;temperature;humidity
28701;BME280;15877;52.344;16.790;2023-11-21T00:01:21;99833.21;;;11.05;90.24
28701;BME280;15877;52.344;16.790;2023-11-21T00:03:54;99840.19;;;11.03;89.89
28701;BME280;15877;52.344;16.790;2023-11-21T00:06:26;99848.02;;;11.01;89.76
28701;BME280;15877;52.344;16.790;2023-11-21T00:09:00;99849.73;;;10.98;89.87
28701;BME280;15877;52.344;16.790;2023-11-21T00:11:32;99854.42;;;10.98;89.68
28701;BME280;15877;52.344;16.790;2023-11-21T00:14:05;99856.64;;;10.98;89.85
28701;BME280;15877;52.344;16.790;2023-11-21T00:16:39;99842.23;;;10.88;90.02
28701;BME280;15877;52.344;16.790;2023-11-21T00:19:11;99855.82;;;10.95;89.85
28701;BME280;15877;52.344;16.790;2023-11-21T00:21:44;99841.28;;;10.87;89.72
28701;BME280;15877;52.344;16.790;2023-11-21T00:24:16;99841.25;;;10.85;89.62
28701;BME280;15877;52.344;16.790;2023-11-21T00:26:48;99848.47;;;10.90;89.41
28701;BME280;15877;52.344;16.790;2023-11-21T00:29:21;99852.60;;;10.84;89.09
28701;BME280;15877;52.344;16.790;2023-11-21T00:31:54;99852.92;;;10.85;88.94
28701;BME280;15877;52.344;16.790;2023-11-21T00:34:26;99856.98;;;10.85;88.65
28701;BME280;15877;52.344;16.790;2023-11-21T00:36:59;99857.64;;;10.81;88.36
28701;BME280;15877;52.344;16.790;2023-11-21T00:39:31;99864.61;;;10.81;88.03
28701;BME280;15877;52.344;16.790;2023-11-21T00:42:04;99865.48;;;10.79;87.95
28701;BME280;15877;52.344;16.790;2023-11-21T00:44:38;99873.61;;;10.76;87.67
28701;BME280;15877;52.344;16.790;2023-11-21T00:47:11;99874.31;;;10.75;87.40
28701;BME280;15877;52.344;16.790;2023-11-21T00:49:44;99873.19;;;10.74;87.53
28701;BME280;15877;52.344;16.790;2023-11-21T00:52:16;99869.29;;;10.73;87.48
28701;BME280;15877;52.344;16.790;2023-11-21T00:54:48;99868.88;;;10.71;87.51
28701;BME280;15877;52.344;16.790;2023-11-21T00:57:20;99872.59;;;10.69;87.43
28701;BME280;15877;52.344;16.790;2023-11-21T00:59:52;99875.88;;;10.67;87.43
28701;BME280;15877;52.344;16.790;2023-11-21T01:02:25;99875.62;;;10.65;87.29
28701;BME280;15877;52.344;16.790;2023-11-21T01:04:57;99874.08;;;10.62;87.12
28701;BME280;15877;52.344;16.790;2023-11-21T01:07:32;99863.95;;;10.53;87.15
28701;BME280;15877;52.344;16.790;2023-11-21T01:10:03;99871.98;;;10.53;87.01
28701;BME280;15877;52.344;16.790;2023-11-21T01:12:39;99879.15;;;10.55;86.94
28701;BME280;15877;52.344;16.790;2023-11-21T01:15:11;99871.96;;;10.46;86.84
28701;BME280;15877;52.344;16.790;2023-11-21T01:17:44;99889.59;;;10.53;86.89
28701;BME280;15877;52.344;16.790;2023-11-21T01:20:16;99889.70;;;10.50;86.48
28701;BME280;15877;52.344;16.790;2023-11-21T01:22:50;99891.13;;;10.50;86.70
28701;BME280;15877;52.344;16.790;2023-11-21T01:25:24;99892.84;;;10.47;86.26
28701;BME280;15877;52.344;16.790;2023-11-21T01:27:57;99895.06;;;10.47;86.04
28701;BME280;15877;52.344;16.790;2023-11-21T01:30:29;99893.29;;;10.45;85.97
28701;BME280;15877;52.344;16.790;2023-11-21T01:33:01;99897.30;;;10.43;85.77
28701;BME280;15877;52.344;16.790;2023-11-21T01:35:34;99899.10;;;10.41;85.70
28701;BME280;15877;52.344;16.790;2023-11-21T01:38:06;99899.11;;;10.36;85.71
28701;BME280;15877;52.344;16.790;2023-11-21T01:40:39;99907.29;;;10.36;85.76
28701;BME280;15877;52.344;16.790;2023-11-21T01:43:12;99902.76;;;10.30;85.66
28701;BME280;15877;52.344;16.790;2023-11-21T01:45:44;99902.07;;;10.32;85.53
28701;BME280;15877;52.344;16.790;2023-11-21T01:48:17;99900.87;;;10.31;85.19
28701;BME280;15877;52.344;16.790;2023-11-21T01:50:52;99895.19;;;10.28;85.05
28701;BME280;15877;52.344;16.790;2023-11-21T01:53:25;99897.97;;;10.28;84.74
28701;BME280;15877;52.344;16.790;2023-11-21T01:55:59;99904.06;;;10.27;84.61
28701;BME280;15877;52.344;16.790;2023-11-21T01:58:32;99905.55;;;10.20;84.23
28701;BME280;15877;52.344;16.790;2023-11-21T02:01:04;99907.27;;;10.14;84.15
28701;BME280;15877;52.344;16.790;2023-11-21T02:03:37;99906.60;;;10.08;83.88
28701;BME280;15877;52.344;16.790;2023-11-21T02:06:11;99896.73;;;10.00;84.00
28701;BME280;15877;52.344;16.790;2023-11-21T02:08:44;99933.05;;;10.09;83.98
28701;BME280;15877;52.344;16.790;2023-11-21T02:11:16;99925.23;;;10.02;84.11
28701;BME280;15877;52.344;16.790;2023-11-21T02:13:50;99931.59;;;10.09;84.07
28701;BME280;15877;52.344;16.790;2023-11-21T02:16:24;99932.73;;;10.09;83.85
28701;BME280;15877;52.344;16.790;2023-11-21T02:18:58;99936.10;;;10.08;83.98
28701;BME280;15877;52.344;16.790;2023-11-21T02:21:31;99939.71;;;10.06;83.85
28701;BME280;15877;52.344;16.790;2023-11-21T02:24:05;99916.98;;;9.93;83.53
28701;BME280;15877;52.344;16.790;2023-11-21T02:26:37;99934.84;;;10.04;83.66
28701;BME280;15877;52.344;16.790;2023-11-21T02:29:10;99937.02;;;10.01;83.77
28701;BME280;15877;52.344;16.790;2023-11-21T02:31:45;99938.20;;;10.01;83.86
28701;BME280;15877;52.344;16.790;2023-11-21T02:34:20;99932.78;;;9.90;83.84
28701;BME280;15877;52.344;16.790;2023-11-21T02:36:52;99953.42;;;9.91;83.06
28701;BME280;15877;52.344;16.790;2023-11-21T02:39:25;99954.45;;;9.86;83.37
28701;BME280;15877;52.344;16.790;2023-11-21T02:41:57;99954.96;;;9.88;83.55
28701;BME280;15877;52.344;16.790;2023-11-21T02:44:30;99958.69;;;9.88;83.78
28701;BME280;15877;52.344;16.790;2023-11-21T02:47:02;99958.98;;;9.88;83.66
28701;BME280;15877;52.344;16.790;2023-11-21T02:49:35;99959.67;;;9.86;83.75
28701;BME280;15877;52.344;16.790;2023-11-21T02:52:08;99958.40;;;9.85;83.58
28701;BME280;15877;52.344;16.790;2023-11-21T02:54:40;99956.21;;;9.82;83.74
28701;BME280;15877;52.344;16.790;2023-11-21T02:57:13;99958.20;;;9.82;83.71
28701;BME280;15877;52.344;16.790;2023-11-21T02:59:46;99956.16;;;9.80;83.51
28701;BME280;15877;52.344;16.790;2023-11-21T03:02:18;99966.32;;;9.80;83.44
28701;BME280;15877;52.344;16.790;2023-11-21T03:04:50;99966.39;;;9.80;83.30
28701;BME280;15877;52.344;16.790;2023-11-21T03:07:23;99966.86;;;9.67;83.18
28701;BME280;15877;52.344;16.790;2023-11-21T03:09:55;99973.27;;;9.70;83.57
28701;BME280;15877;52.344;16.790;2023-11-21T03:12:28;99970.91;;;9.71;83.29
28701;BME280;15877;52.344;16.790;2023-11-21T03:15:00;99972.80;;;9.70;82.97
28701;BME280;15877;52.344;16.790;2023-11-21T03:17:34;99970.34;;;9.71;82.94
28701;BME280;15877;52.344;16.790;2023-11-21T03:20:09;99969.05;;;9.70;82.73
28701;BME280;15877;52.344;16.790;2023-11-21T03:22:44;99975.05;;;9.67;82.61
28701;BME280;15877;52.344;16.790;2023-11-21T03:25:18;99978.09;;;9.65;82.34
28701;BME280;15877;52.344;16.790;2023-11-21T03:27:51;99978.25;;;9.61;82.02
28701;BME280;15877;52.344;16.790;2023-11-21T03:30:24;99971.53;;;9.49;81.95
28701;BME280;15877;52.344;16.790;2023-11-21T03:32:57;99986.15;;;9.56;81.59
28701;BME280;15877;52.344;16.790;2023-11-21T03:35:29;99985.80;;;9.54;81.61
28701;BME280;15877;52.344;16.790;2023-11-21T03:38:01;99988.09;;;9.50;82.09
28701;BME280;15877;52.344;16.790;2023-11-21T03:40:34;99990.71;;;9.50;81.87
28701;BME280;15877;52.344;16.790;2023-11-21T03:43:06;99993.99;;;9.51;81.65
28701;BME280;15877;52.344;16.790;2023-11-21T03:45:38;99997.00;;;9.43;81.53
28701;BME280;15877;52.344;16.790;2023-11-21T03:48:13;100004.93;;;9.35;81.55
28701;BME280;15877;52.344;16.790;2023-11-21T03:50:45;100005.16;;;9.35;81.51
28701;BME280;15877;52.344;16.790;2023-11-21T03:53:19;100003.00;;;9.30;81.66
28701;BME280;15877;52.344;16.790;2023-11-21T03:55:51;100004.74;;;9.34;81.20
28701;BME280;15877;52.344;16.790;2023-11-21T03:58:23;100003.42;;;9.35;80.93
28701;BME280;15877;52.344;16.790;2023-11-21T04:00:55;100003.84;;;9.37;80.82
28701;BME280;15877;52.344;16.790;2023-11-21T04:03:28;99999.08;;;9.32;80.80
28701;BME280;15877;52.344;16.790;2023-11-21T04:06:01;99999.16;;;9.28;80.50
28701;BME280;15877;52.344;16.790;2023-11-21T04:08:33;99999.42;;;9.25;80.34
28701;BME280;15877;52.344;16.790;2023-11-21T04:11:06;100003.79;;;9.26;79.89
28701;BME280;15877;52.344;16.790;2023-11-21T04:13:38;99998.41;;;9.23;79.50
28701;BME280;15877;52.344;16.790;2023-11-21T04:16:11;100001.21;;;9.24;79.67
28701;BME280;15877;52.344;16.790;2023-11-21T04:18:43;99998.01;;;9.22;79.56
28701;BME280;15877;52.344;16.790;2023-11-21T04:21:15;100000.00;;;9.23;79.48
28701;BME280;15877;52.344;16.790;2023-11-21T04:23:47;100008.63;;;9.22;79.09
28701;BME280;15877;52.344;16.790;2023-11-21T04:26:20;100003.39;;;9.13;78.92
28701;BME280;15877;52.344;16.790;2023-11-21T04:28:52;100012.27;;;9.16;78.80
28701;BME280;15877;52.344;16.790;2023-11-21T04:31:25;100016.67;;;9.13;78.88
28701;BME280;15877;52.344;16.790;2023-11-21T04:33:57;100020.95;;;9.10;78.85
28701;BME280;15877;52.344;16.790;2023-11-21T04:36:29;100024.17;;;9.08;79.00
28701;BME280;15877;52.344;16.790;2023-11-21T04:39:02;100027.88;;;9.05;78.70
28701;BME280;15877;52.344;16.790;2023-11-21T04:41:34;100037.48;;;8.95;77.98
28701;BME280;15877;52.344;16.790;2023-11-21T04:44:08;100041.34;;;8.94;77.77
28701;BME280;15877;52.344;16.790;2023-11-21T04:46:40;100046.32;;;8.93;77.58
28701;BME280;15877;52.344;16.790;2023-11-21T04:49:12;100053.79;;;8.87;76.91
28701;BME280;15877;52.344;16.790;2023-11-21T04:51:44;100060.13;;;8.71;76.53
28701;BME280;15877;52.344;16.790;2023-11-21T04:54:17;100062.27;;;8.64;77.07
28701;BME280;15877;52.344;16.790;2023-11-21T04:56:49;100065.35;;;8.68;77.81
28701;BME280;15877;52.344;16.790;2023-11-21T04:59:22;100068.39;;;8.69;78.20
28701;BME280;15877;52.344;16.790;2023-11-21T05:01:55;100075.58;;;8.68;78.06
28701;BME280;15877;52.344;16.790;2023-11-21T05:04:28;100078.36;;;8.69;78.06
28701;BME280;15877;52.344;16.790;2023-11-21T05:07:00;100080.77;;;8.67;77.75
28701;BME280;15877;52.344;16.790;2023-11-21T05:09:32;100080.67;;;8.53;77.73
28701;BME280;15877;52.344;16.790;2023-11-21T05:12:06;100089.52;;;8.59;77.97
28701;BME280;15877;52.344;16.790;2023-11-21T05:14:39;100088.86;;;8.61;77.33
28701;BME280;15877;52.344;16.790;2023-11-21T05:17:11;100101.86;;;8.59;77.07
28701;BME280;15877;52.344;16.790;2023-11-21T05:19:44;100106.14;;;8.57;76.85
28701;BME280;15877;52.344;16.790;2023-11-21T05:22:19;100110.34;;;8.56;77.04
28701;BME280;15877;52.344;16.790;2023-11-21T05:24:52;100103.20;;;8.52;76.98
28701;BME280;15877;52.344;16.790;2023-11-21T05:27:24;100105.52;;;8.56;76.95
28701;BME280;15877;52.344;16.790;2023-11-21T05:29:56;100101.16;;;8.53;76.91
28701;BME280;15877;52.344;16.790;2023-11-21T05:32:28;100097.27;;;8.43;76.59
28701;BME280;15877;52.344;16.790;2023-11-21T05:35:01;100119.98;;;8.53;76.61
28701;BME280;15877;52.344;16.790;2023-11-21T05:37:34;100124.14;;;8.52;76.31
28701;BME280;15877;52.344;16.790;2023-11-21T05:40:09;100127.52;;;8.48;76.28
28701;BME280;15877;52.344;16.790;2023-11-21T05:42:41;100129.64;;;8.41;76.33
28701;BME280;15877;52.344;16.790;2023-11-21T05:45:14;100127.73;;;8.37;76.54
28701;BME280;15877;52.344;16.790;2023-11-21T05:47:47;100124.78;;;8.33;76.57
28701;BME280;15877;52.344;16.790;2023-11-21T05:50:19;100130.09;;;8.34;76.72
28701;BME280;15877;52.344;16.790;2023-11-21T05:52:51;100131.69;;;8.32;76.76
28701;BME280;15877;52.344;16.790;2023-11-21T05:55:25;100132.05;;;8.27;76.64
28701;BME280;15877;52.344;16.790;2023-11-21T05:57:58;100123.02;;;8.18;76.62
28701;BME280;15877;52.344;16.790;2023-11-21T06:00:30;100126.38;;;8.20;76.12
28701;BME280;15877;52.344;16.790;2023-11-21T06:03:03;100143.15;;;8.25;75.95
28701;BME280;15877;52.344;16.790;2023-11-21T06:05:37;100146.86;;;8.25;75.54
28701;BME280;15877;52.344;16.790;2023-11-21T06:08:10;100152.98;;;8.26;75.48
28701;BME280;15877;52.344;16.790;2023-11-21T06:10:42;100150.44;;;8.12;75.80
28701;BME280;15877;52.344;16.790;2023-11-21T06:13:14;100156.96;;;8.17;75.77
28701;BME280;15877;52.344;16.790;2023-11-21T06:15:46;100169.41;;;8.19;75.41
28701;BME280;15877;52.344;16.790;2023-11-21T06:18:19;100175.29;;;8.17;75.02
28701;BME280;15877;52.344;16.790;2023-11-21T06:20:51;100176.65;;;8.08;75.10
28701;BME280;15877;52.344;16.790;2023-11-21T06:23:24;100182.89;;;8.11;75.43
28701;BME280;15877;52.344;16.790;2023-11-21T06:25:58;100184.90;;;8.12;75.25
28701;BME280;15877;52.344;16.790;2023-11-21T06:28:31;100187.85;;;8.02;75.54
28701;BME280;15877;52.344;16.790;2023-11-21T06:31:04;100186.23;;;8.00;75.64
28701;BME280;15877;52.344;16.790;2023-11-21T06:33:36;100199.54;;;8.07;75.14
28701;BME280;15877;52.344;16.790;2023-11-21T06:36:11;100201.77;;;8.04;74.84
28701;BME280;15877;52.344;16.790;2023-11-21T06:38:42;100205.52;;;8.03;75.06
28701;BME280;15877;52.344;16.790;2023-11-21T06:41:15;100210.68;;;7.91;75.01
28701;BME280;15877;52.344;16.790;2023-11-21T06:43:48;100211.25;;;7.97;74.93
28701;BME280;15877;52.344;16.790;2023-11-21T06:46:21;100214.61;;;7.98;75.02
28701;BME280;15877;52.344;16.790;2023-11-21T06:48:54;100221.40;;;7.95;74.94
28701;BME280;15877;52.344;16.790;2023-11-21T06:51:26;100222.72;;;7.97;74.90
28701;BME280;15877;52.344;16.790;2023-11-21T06:53:59;100225.64;;;7.94;74.91
28701;BME280;15877;52.344;16.790;2023-11-21T06:56:31;100230.83;;;7.90;74.79
28701;BME280;15877;52.344;16.790;2023-11-21T06:59:07;100230.46;;;7.89;74.86
28701;BME280;15877;52.344;16.790;2023-11-21T07:01:40;100233.52;;;7.74;75.13
28701;BME280;15877;52.344;16.790;2023-11-21T07:04:14;100231.92;;;7.79;75.23
28701;BME280;15877;52.344;16.790;2023-11-21T07:13:20;100235.46;;;7.82;75.38
28701;BME280;15877;52.344;16.790;2023-11-21T07:15:53;100244.70;;;7.84;75.27
28701;BME280;15877;52.344;16.790;2023-11-21T07:18:25;100247.30;;;7.81;75.37
28701;BME280;15877;52.344;16.790;2023-11-21T07:20:59;100231.96;;;7.59;75.27
28701;BME280;15877;52.344;16.790;2023-11-21T07:23:32;100253.77;;;7.81;75.28
28701;BME280;15877;52.344;16.790;2023-11-21T07:26:04;100253.50;;;7.69;75.14
28701;BME280;15877;52.344;16.790;2023-11-21T07:28:42;100255.40;;;7.70;75.14
28701;BME280;15877;52.344;16.790;2023-11-21T07:31:14;100263.95;;;7.78;74.91
28701;BME280;15877;52.344;16.790;2023-11-21T07:33:47;100255.70;;;7.64;74.93
28701;BME280;15877;52.344;16.790;2023-11-21T07:36:20;100270.72;;;7.77;74.99
28701;BME280;15877;52.344;16.790;2023-11-21T07:38:52;100264.73;;;7.67;74.81
28701;BME280;15877;52.344;16.790;2023-11-21T07:41:25;100280.99;;;7.77;74.84
28701;BME280;15877;52.344;16.790;2023-11-21T07:44:01;100282.98;;;7.72;74.73
28701;BME280;15877;52.344;16.790;2023-11-21T07:46:34;100288.98;;;7.67;74.70
28701;BME280;15877;52.344;16.790;2023-11-21T07:49:06;100286.45;;;7.67;74.63
28701;BME280;15877;52.344;16.790;2023-11-21T07:51:39;100272.60;;;7.54;74.64
28701;BME280;15877;52.344;16.790;2023-11-21T07:54:11;100287.47;;;7.59;74.81
28701;BME280;15877;52.344;16.790;2023-11-21T07:56:44;100296.51;;;7.58;74.94
28701;BME280;15877;52.344;16.790;2023-11-21T07:59:17;100296.87;;;7.67;74.89
28701;BME280;15877;52.344;16.790;2023-11-21T08:01:50;100303.20;;;7.69;74.53
28701;BME280;15877;52.344;16.790;2023-11-21T08:04:22;100300.20;;;7.72;74.73
28701;BME280;15877;52.344;16.790;2023-11-21T08:06:55;100303.09;;;7.71;74.67
28701;BME280;15877;52.344;16.790;2023-11-21T08:09:27;100308.53;;;7.56;74.04
28701;BME280;15877;52.344;16.790;2023-11-21T08:12:00;100314.54;;;7.56;74.46
28701;BME280;15877;52.344;16.790;2023-11-21T08:14:33;100314.39;;;7.51;74.86
28701;BME280;15877;52.344;16.790;2023-11-21T08:17:11;100312.81;;;7.54;74.66
28701;BME280;15877;52.344;16.790;2023-11-21T08:19:48;100318.66;;;7.59;74.97
28701;BME280;15877;52.344;16.790;2023-11-21T08:22:22;100317.35;;;7.48;74.67
28701;BME280;15877;52.344;16.790;2023-11-21T08:24:55;100317.48;;;7.42;74.66
28701;BME280;15877;52.344;16.790;2023-11-21T08:27:28;100322.65;;;7.28;74.41
28701;BME280;15877;52.344;16.790;2023-11-21T08:30:00;100321.83;;;7.34;74.60
28701;BME280;15877;52.344;16.790;2023-11-21T08:32:34;100320.48;;;7.32;74.53
28701;BME280;15877;52.344;16.790;2023-11-21T08:35:08;100326.34;;;7.25;75.13
28701;BME280;15877;52.344;16.790;2023-11-21T08:37:41;100331.06;;;7.27;75.12
28701;BME280;15877;52.344;16.790;2023-11-21T08:40:14;100338.19;;;7.35;74.91
28701;BME280;15877;52.344;16.790;2023-11-21T08:42:49;100346.27;;;7.43;75.19
28701;BME280;15877;52.344;16.790;2023-11-21T08:45:22;100354.89;;;7.40;74.98
28701;BME280;15877;52.344;16.790;2023-11-21T08:47:55;100354.61;;;7.35;74.79
28701;BME280;15877;52.344;16.790;2023-11-21T08:50:27;100359.34;;;7.35;74.99
28701;BME280;15877;52.344;16.790;2023-11-21T08:53:00;100354.99;;;7.41;75.00
28701;BME280;15877;52.344;16.790;2023-11-21T08:55:32;100361.14;;;7.46;75.10
28701;BME280;15877;52.344;16.790;2023-11-21T08:58:08;100370.98;;;7.43;74.70
28701;BME280;15877;52.344;16.790;2023-11-21T09:00:41;100369.32;;;7.38;74.58
28701;BME280;15877;52.344;16.790;2023-11-21T09:03:15;100376.85;;;7.41;74.66
28701;BME280;15877;52.344;16.790;2023-11-21T09:05:48;100362.05;;;7.31;74.23
28701;BME280;15877;52.344;16.790;2023-11-21T09:08:20;100377.88;;;7.27;73.59
28701;BME280;15877;52.344;16.790;2023-11-21T09:10:53;100371.40;;;7.04;73.94
28701;BME280;15877;52.344;16.790;2023-11-21T09:13:25;100382.55;;;7.10;74.50
28701;BME280;15877;52.344;16.790;2023-11-21T09:15:57;100365.88;;;7.09;74.81
28701;BME280;15877;52.344;16.790;2023-11-21T09:18:30;100382.86;;;7.14;75.03
28701;BME280;15877;52.344;16.790;2023-11-21T09:21:03;100385.77;;;7.25;74.96
28701;BME280;15877;52.344;16.790;2023-11-21T09:23:36;100385.94;;;7.30;74.97
28701;BME280;15877;52.344;16.790;2023-11-21T09:26:08;100391.14;;;7.32;74.97
28701;BME280;15877;52.344;16.790;2023-11-21T09:28:41;100394.07;;;7.32;74.44
28701;BME280;15877;52.344;16.790;2023-11-21T09:31:17;100395.39;;;7.29;73.71
28701;BME280;15877;52.344;16.790;2023-11-21T09:33:53;100395.83;;;7.21;73.31
28701;BME280;15877;52.344;16.790;2023-11-21T09:36:26;100366.98;;;7.00;73.98
28701;BME280;15877;52.344;16.790;2023-11-21T09:39:00;100393.38;;;7.16;74.14
28701;BME280;15877;52.344;16.790;2023-11-21T09:41:43;100394.92;;;6.98;74.15
28701;BME280;15877;52.344;16.790;2023-11-21T09:44:20;100398.89;;;6.96;74.55
28701;BME280;15877;52.344;16.790;2023-11-21T09:46:56;100404.73;;;7.12;74.71
28701;BME280;15877;52.344;16.790;2023-11-21T09:49:32;100399.15;;;7.17;74.43
28701;BME280;15877;52.344;16.790;2023-11-21T09:52:10;100406.67;;;7.18;74.65
28701;BME280;15877;52.344;16.790;2023-11-21T09:54:49;100406.91;;;7.24;74.73
28701;BME280;15877;52.344;16.790;2023-11-21T09:57:22;100395.80;;;7.14;74.68
28701;BME280;15877;52.344;16.790;2023-11-21T09:59:55;100407.33;;;7.29;74.63
28701;BME280;15877;52.344;16.790;2023-11-21T10:02:30;100410.37;;;7.33;74.34
28701;BME280;15877;52.344;16.790;2023-11-21T10:05:08;100417.77;;;7.34;74.30
28701;BME280;15877;52.344;16.790;2023-11-21T10:07:43;100426.08;;;7.38;73.88
28701;BME280;15877;52.344;16.790;2023-11-21T10:10:18;100423.34;;;7.25;73.31
28701;BME280;15877;52.344;16.790;2023-11-21T10:12:57;100424.03;;;7.04;73.14
28701;BME280;15877;52.344;16.790;2023-11-21T10:15:34;100430.65;;;7.04;72.85
28701;BME280;15877;52.344;16.790;2023-11-21T10:18:08;100421.91;;;7.00;73.86
28701;BME280;15877;52.344;16.790;2023-11-21T10:20:41;100422.63;;;7.13;74.24
28701;BME280;15877;52.344;16.790;2023-11-21T10:23:16;100426.46;;;7.09;74.11
28701;BME280;15877;52.344;16.790;2023-11-21T10:25:48;100425.89;;;7.12;74.35
28701;BME280;15877;52.344;16.790;2023-11-21T10:28:20;100430.01;;;7.19;73.94
28701;BME280;15877;52.344;16.790;2023-11-21T10:30:53;100415.30;;;7.16;73.80
28701;BME280;15877;52.344;16.790;2023-11-21T10:33:29;100415.75;;;7.18;73.76
28701;BME280;15877;52.344;16.790;2023-11-21T10:36:02;100432.88;;;7.26;73.74
28701;BME280;15877;52.344;16.790;2023-11-21T10:38:43;100435.10;;;7.29;73.58
28701;BME280;15877;52.344;16.790;2023-11-21T10:41:19;100437.06;;;7.24;72.92
28701;BME280;15877;52.344;16.790;2023-11-21T10:43:54;100439.79;;;7.21;72.50
28701;BME280;15877;52.344;16.790;2023-11-21T10:46:28;100435.09;;;7.24;73.18
28701;BME280;15877;52.344;16.790;2023-11-21T10:49:01;100435.45;;;7.26;73.41
28701;BME280;15877;52.344;16.790;2023-11-21T10:51:33;100435.20;;;7.28;73.81
28701;BME280;15877;52.344;16.790;2023-11-21T10:54:06;100436.77;;;7.29;73.72
28701;BME280;15877;52.344;16.790;2023-11-21T10:56:38;100438.82;;;7.34;73.39
28701;BME280;15877;52.344;16.790;2023-11-21T10:59:14;100437.85;;;7.26;72.86
28701;BME280;15877;52.344;16.790;2023-11-21T11:01:47;100438.81;;;7.18;72.54
28701;BME280;15877;52.344;16.790;2023-11-21T11:04:22;100431.57;;;7.08;72.85
28701;BME280;15877;52.344;16.790;2023-11-21T11:06:56;100453.67;;;7.10;73.14
28701;BME280;15877;52.344;16.790;2023-11-21T11:09:32;100448.63;;;7.12;73.28
28701;BME280;15877;52.344;16.790;2023-11-21T11:12:05;100450.70;;;7.15;73.40
28701;BME280;15877;52.344;16.790;2023-11-21T11:14:38;100460.25;;;7.19;73.25
28701;BME280;15877;52.344;16.790;2023-11-21T11:17:14;100464.67;;;7.12;72.65
28701;BME280;15877;52.344;16.790;2023-11-21T11:19:47;100467.59;;;7.04;72.60
28701;BME280;15877;52.344;16.790;2023-11-21T11:22:37;100473.55;;;7.10;73.12
28701;BME280;15877;52.344;16.790;2023-11-21T11:25:27;100474.45;;;7.15;73.24
28701;BME280;15877;52.344;16.790;2023-11-21T11:28:07;100470.84;;;7.17;72.81
28701;BME280;15877;52.344;16.790;2023-11-21T11:30:45;100468.25;;;7.20;72.86
28701;BME280;15877;52.344;16.790;2023-11-21T11:33:28;100475.84;;;7.18;72.72
28701;BME280;15877;52.344;16.790;2023-11-21T11:36:09;100484.16;;;7.19;72.82
28701;BME280;15877;52.344;16.790;2023-11-21T11:38:46;100490.11;;;7.22;72.64
28701;BME280;15877;52.344;16.790;2023-11-21T11:41:27;100489.16;;;7.19;72.46
28701;BME280;15877;52.344;16.790;2023-11-21T11:44:01;100494.42;;;7.17;72.19
28701;BME280;15877;52.344;16.790;2023-11-21T11:46:44;100501.98;;;7.06;72.49
28701;BME280;15877;52.344;16.790;2023-11-21T11:49:26;100505.83;;;7.07;72.50
28701;BME280;15877;52.344;16.790;2023-11-21T11:52:36;100497.28;;;6.88;72.60
28701;BME280;15877;52.344;16.790;2023-11-21T11:55:11;100521.21;;;7.01;73.04
28701;BME280;15877;52.344;16.790;2023-11-21T11:57:45;100526.92;;;7.02;72.10
28701;BME280;15877;52.344;16.790;2023-11-21T12:00:19;100534.98;;;6.73;71.17
28701;BME280;15877;52.344;16.790;2023-11-21T12:02:57;100526.66;;;6.40;71.71
28701;BME280;15877;52.344;16.790;2023-11-21T12:05:33;100541.29;;;6.49;71.80
28701;BME280;15877;52.344;16.790;2023-11-21T12:08:08;100546.41;;;6.55;72.76
28701;BME280;15877;52.344;16.790;2023-11-21T12:10:40;100532.02;;;6.46;73.18
28701;BME280;15877;52.344;16.790;2023-11-21T12:13:13;100544.95;;;6.54;73.45
28701;BME280;15877;52.344;16.790;2023-11-21T12:15:45;100543.29;;;6.60;73.24
28701;BME280;15877;52.344;16.790;2023-11-21T12:18:18;100550.42;;;6.57;72.48
28701;BME280;15877;52.344;16.790;2023-11-21T12:20:50;100554.70;;;6.47;71.75
28701;BME280;15877;52.344;16.790;2023-11-21T12:23:23;100559.82;;;6.49;71.52
28701;BME280;15877;52.344;16.790;2023-11-21T12:25:56;100556.60;;;6.38;71.73
28701;BME280;15877;52.344;16.790;2023-11-21T12:28:29;100556.48;;;6.41;71.78
28701;BME280;15877;52.344;16.790;2023-11-21T12:31:01;100556.30;;;6.36;72.26
28701;BME280;15877;52.344;16.790;2023-11-21T12:33:48;100556.64;;;6.40;72.52
28701;BME280;15877;52.344;16.790;2023-11-21T12:36:23;100557.91;;;6.45;72.06
28701;BME280;15877;52.344;16.790;2023-11-21T12:38:56;100562.71;;;6.39;72.21
28701;BME280;15877;52.344;16.790;2023-11-21T12:41:29;100561.28;;;6.38;72.38
28701;BME280;15877;52.344;16.790;2023-11-21T12:44:02;100566.77;;;6.44;71.86
28701;BME280;15877;52.344;16.790;2023-11-21T12:46:34;100566.86;;;6.31;71.59
28701;BME280;15877;52.344;16.790;2023-11-21T12:49:06;100555.96;;;6.02;71.90
28701;BME280;15877;52.344;16.790;2023-11-21T12:51:39;100570.98;;;6.18;72.30
28701;BME280;15877;52.344;16.790;2023-11-21T12:54:11;100577.92;;;6.27;72.11
28701;BME280;15877;52.344;16.790;2023-11-21T12:56:46;100580.61;;;6.22;72.60
28701;BME280;15877;52.344;16.790;2023-11-21T12:59:21;100578.72;;;6.07;72.37
28701;BME280;15877;52.344;16.790;2023-11-21T13:01:55;100580.88;;;5.94;72.51
28701;BME280;15877;52.344;16.790;2023-11-21T13:04:32;100576.88;;;6.00;71.59
28701;BME280;15877;52.344;16.790;2023-11-21T13:07:06;100597.04;;;6.13;71.29
28701;BME280;15877;52.344;16.790;2023-11-21T13:09:45;100607.12;;;5.93;71.31
28701;BME280;15877;52.344;16.790;2023-11-21T13:12:17;100609.73;;;6.02;71.45
28701;BME280;15877;52.344;16.790;2023-11-21T13:14:56;100617.60;;;5.96;71.84
28701;BME280;15877;52.344;16.790;2023-11-21T13:17:30;100622.50;;;5.93;71.74
28701;BME280;15877;52.344;16.790;2023-11-21T13:20:03;100608.20;;;5.68;71.85
28701;BME280;15877;52.344;16.790;2023-11-21T13:22:38;100629.73;;;5.84;72.17
28701;BME280;15877;52.344;16.790;2023-11-21T13:25:10;100636.95;;;5.87;72.03
28701;BME280;15877;52.344;16.790;2023-11-21T13:27:45;100642.11;;;5.87;71.80
28701;BME280;15877;52.344;16.790;2023-11-21T13:30:18;100643.78;;;5.90;72.50